Time;durP1;ratioP1;P1;durP2;ratioP2;P2;SDS_P1;SDS_P2;PMS_P1;PMS_P2;Temp;Humidity;BMP_temperature;BMP_pressure;BME280_temperature;BME280_humidity;BME280_pressure;Samples;Min_cycle;Max_cycle;Signal;HPM_P1;HPM_P2
2023/05/19 00:01:53;;;;;;;3.15;2.85;;;12.70;92.40;;;;;;6057003;23;20463;-63
2023/05/19 00:04:21;;;;;;;3.97;2.70;;;12.70;92.60;;;;;;6054657;23;20265;-63
2023/05/19 00:06:50;;;;;;;3.50;2.33;;;12.70;92.80;;;;;;6054438;23;20266;-63
2023/05/19 00:09:19;;;;;;;4.28;2.50;;;12.60;93.00;;;;;;6054467;23;21001;-63
2023/05/19 00:11:47;;;;;;;4.30;2.80;;;12.60;93.50;;;;;;6052898;23;20283;-63
2023/05/19 00:14:14;;;;;;;4.18;2.53;;;12.60;93.40;;;;;;6056447;23;20436;-63
2023/05/19 00:16:42;;;;;;;2.80;2.30;;;12.60;93.60;;;;;;6060911;23;20284;-63
2023/05/19 00:19:09;;;;;;;3.77;2.40;;;12.50;93.70;;;;;;6051398;23;20463;-63
2023/05/19 00:21:38;;;;;;;4.40;2.58;;;12.50;93.90;;;;;;6051638;23;20467;-63
2023/05/19 00:24:05;;;;;;;3.30;2.33;;;12.50;94.10;;;;;;6055586;23;20210;-63
2023/05/19 00:26:34;;;;;;;4.93;2.80;;;12.50;94.30;;;;;;6049952;23;20431;-63
2023/05/19 00:29:01;;;;;;;5.35;2.40;;;12.50;94.50;;;;;;6056504;23;20462;-63
2023/05/19 00:31:28;;;;;;;3.90;2.25;;;12.50;94.70;;;;;;6053296;23;20728;-63
2023/05/19 00:33:55;;;;;;;4.35;2.33;;;12.40;94.80;;;;;;6052660;23;20271;-63
2023/05/19 00:36:22;;;;;;;2.78;2.45;;;12.40;94.80;;;;;;6051393;23;20742;-63
2023/05/19 00:38:50;;;;;;;3.05;2.55;;;12.40;94.90;;;;;;6058166;23;20232;-63
2023/05/19 00:41:17;;;;;;;2.95;2.10;;;12.40;95.10;;;;;;6057851;23;20239;-63
2023/05/19 00:43:46;;;;;;;4.57;2.67;;;12.40;95.20;;;;;;6042578;23;20185;-63
2023/05/19 00:46:13;;;;;;;2.58;2.10;;;12.40;95.40;;;;;;6044845;23;20255;-63
2023/05/19 00:48:40;;;;;;;3.75;2.40;;;12.30;95.70;;;;;;6056497;23;20233;-63
2023/05/19 00:51:07;;;;;;;4.25;2.83;;;12.30;95.80;;;;;;6057027;23;20200;-63
2023/05/19 00:53:35;;;;;;;6.63;2.50;;;12.30;95.90;;;;;;6056476;23;20212;-63
2023/05/19 00:56:03;;;;;;;3.67;2.20;;;12.30;96.00;;;;;;6054595;23;20192;-63
2023/05/19 00:58:31;;;;;;;6.03;2.53;;;12.30;96.10;;;;;;6058045;23;21311;-63
2023/05/19 01:01:02;;;;;;;3.38;2.42;;;12.40;96.30;;;;;;6050717;23;20211;-63
2023/05/19 01:03:30;;;;;;;5.15;2.72;;;12.20;96.30;;;;;;6058327;23;20215;-63
2023/05/19 01:06:00;;;;;;;5.68;2.50;;;12.20;96.40;;;;;;6054914;23;20199;-63
2023/05/19 01:08:28;;;;;;;4.28;2.53;;;12.20;96.60;;;;;;6057947;23;20228;-63
2023/05/19 01:10:55;;;;;;;3.55;2.38;;;12.20;96.80;;;;;;6057804;23;20189;-63
2023/05/19 01:13:21;;;;;;;3.35;2.22;;;12.10;96.90;;;;;;6056936;23;20185;-63
2023/05/19 01:15:59;;;;;;;3.53;2.20;;;12.10;97.10;;;;;;6048890;23;20701;-63
2023/05/19 01:18:37;;;;;;;3.95;2.75;;;12.10;97.20;;;;;;6046836;23;20216;-63
2023/05/19 01:21:22;;;;;;;4.45;2.90;;;12.00;97.30;;;;;;6055759;23;20593;-63
2023/05/19 01:23:55;;;;;;;3.10;2.53;;;12.00;97.50;;;;;;6056992;23;20200;-63
2023/05/19 01:26:50;;;;;;;3.72;2.38;;;12.00;97.60;;;;;;6050760;23;20178;-63
2023/05/19 01:29:37;;;;;;;5.63;2.90;;;12.10;97.80;;;;;;6046125;23;20228;-63
2023/05/19 01:32:07;;;;;;;5.25;2.97;;;12.10;97.90;;;;;;6054019;23;20215;-63
2023/05/19 01:34:38;;;;;;;3.33;2.53;;;12.10;98.10;;;;;;6055599;23;20185;-63
2023/05/19 01:37:07;;;;;;;4.05;2.30;;;12.10;98.30;;;;;;6056438;23;20204;-63
2023/05/19 01:39:36;;;;;;;3.92;2.55;;;12.10;98.40;;;;;;6057068;23;20296;-63
2023/05/19 01:42:04;;;;;;;4.18;2.80;;;12.10;98.50;;;;;;6057125;23;20193;-63
2023/05/19 01:44:33;;;;;;;5.07;2.80;;;12.10;98.60;;;;;;6054212;23;20185;-63
2023/05/19 01:47:01;;;;;;;5.82;3.22;;;12.10;99.00;;;;;;6056601;23;20268;-63
2023/05/19 01:49:30;;;;;;;4.55;2.45;;;12.10;98.80;;;;;;6050154;23;20216;-63
2023/05/19 01:51:57;;;;;;;4.53;2.35;;;12.10;99.00;;;;;;6054471;23;20181;-63
2023/05/19 01:54:24;;;;;;;3.97;2.40;;;12.10;99.00;;;;;;6056069;23;20248;-63
2023/05/19 01:56:59;;;;;;;4.27;2.77;;;12.20;99.10;;;;;;6054955;23;20220;-63
2023/05/19 01:59:40;;;;;;;3.63;2.70;;;12.20;99.20;;;;;;6054300;23;20467;-63
2023/05/19 02:02:17;;;;;;;3.80;2.53;;;12.20;99.30;;;;;;6060773;23;20518;-63
2023/05/19 02:04:55;;;;;;;6.55;2.67;;;12.20;99.30;;;;;;6049084;23;20658;-63
2023/05/19 02:07:31;;;;;;;3.30;2.58;;;12.20;99.40;;;;;;6050347;23;20239;-63
2023/05/19 02:10:05;;;;;;;3.85;2.80;;;12.20;99.50;;;;;;6056271;23;20290;-63
2023/05/19 02:12:34;;;;;;;3.95;2.50;;;12.20;99.60;;;;;;6053335;23;20181;-63
2023/05/19 02:15:05;;;;;;;4.50;2.63;;;12.20;99.90;;;;;;6054951;23;20177;-63
2023/05/19 02:17:35;;;;;;;4.13;2.60;;;12.20;99.80;;;;;;6056153;23;20216;-63
2023/05/19 02:20:05;;;;;;;3.95;2.60;;;12.20;99.90;;;;;;6050369;23;20276;-63
2023/05/19 02:22:32;;;;;;;2.92;2.35;;;12.20;99.90;;;;;;6051866;23;20658;-63
2023/05/19 02:24:59;;;;;;;5.75;2.40;;;12.20;99.90;;;;;;6050073;23;20615;-63
2023/05/19 02:27:27;;;;;;;2.95;2.20;;;12.20;99.90;;;;;;6048366;23;20234;-63
2023/05/19 02:29:54;;;;;;;6.60;3.00;;;12.30;99.90;;;;;;6043733;23;20691;-63
2023/05/19 02:32:21;;;;;;;3.75;3.08;;;12.30;99.90;;;;;;6045888;23;20189;-63
2023/05/19 02:34:48;;;;;;;3.83;2.70;;;12.20;99.90;;;;;;6052329;23;20189;-63
2023/05/19 02:37:17;;;;;;;5.13;2.90;;;12.30;99.90;;;;;;6061137;23;20223;-63
2023/05/19 02:39:44;;;;;;;4.03;2.55;;;12.20;99.90;;;;;;6052863;23;20287;-63
2023/05/19 02:42:13;;;;;;;2.45;2.25;;;12.20;99.90;;;;;;6057005;23;20267;-63
2023/05/19 02:44:40;;;;;;;3.90;2.40;;;12.20;99.90;;;;;;6051446;23;20186;-63
2023/05/19 02:47:07;;;;;;;5.45;2.30;;;12.20;99.90;;;;;;6052872;23;20235;-63
2023/05/19 02:49:35;;;;;;;4.68;2.40;;;12.20;99.90;;;;;;6057933;23;20236;-63
2023/05/19 02:52:02;;;;;;;4.65;2.67;;;12.20;99.90;;;;;;6057859;23;20200;-63
2023/05/19 02:54:31;;;;;;;4.65;2.72;;;12.20;99.90;;;;;;6056560;23;20189;-63
2023/05/19 02:56:59;;;;;;;3.80;2.60;;;12.20;99.90;;;;;;6044859;23;20214;-63
2023/05/19 02:59:25;;;;;;;4.25;2.65;;;12.20;99.90;;;;;;6046614;23;20240;-63
2023/05/19 03:01:56;;;;;;;4.07;2.65;;;12.20;99.90;;;;;;6060184;23;20271;-63
2023/05/19 03:04:23;;;;;;;3.55;2.70;;;12.20;99.90;;;;;;6057107;23;20637;-63
2023/05/19 03:06:50;;;;;;;3.03;2.50;;;12.20;99.90;;;;;;6051621;23;20189;-63
2023/05/19 03:09:17;;;;;;;4.80;2.70;;;12.10;99.90;;;;;;6054642;23;20209;-63
2023/05/19 03:11:46;;;;;;;5.75;2.85;;;12.20;99.90;;;;;;6052390;23;20292;-63
2023/05/19 03:14:13;;;;;;;4.75;3.00;;;12.20;99.90;;;;;;6041851;23;20242;-63
2023/05/19 03:16:40;;;;;;;3.05;2.35;;;12.20;99.90;;;;;;6049473;23;20184;-63
2023/05/19 03:19:08;;;;;;;3.10;2.60;;;12.20;99.90;;;;;;6058384;23;20208;-63
2023/05/19 03:21:35;;;;;;;3.97;2.20;;;12.10;99.90;;;;;;6061098;23;20222;-63
2023/05/19 03:24:02;;;;;;;2.85;2.20;;;12.10;99.90;;;;;;6056681;23;20439;-63
2023/05/19 03:26:30;;;;;;;4.35;2.90;;;12.10;99.90;;;;;;6058766;23;20664;-63
2023/05/19 03:28:58;;;;;;;5.68;2.42;;;12.00;99.90;;;;;;6049427;23;20244;-63
2023/05/19 03:31:25;;;;;;;3.95;2.90;;;12.00;99.90;;;;;;6053323;23;20224;-63
2023/05/19 03:33:52;;;;;;;5.22;2.85;;;11.90;99.90;;;;;;6058397;23;20185;-63
2023/05/19 03:36:20;;;;;;;4.00;2.50;;;11.90;99.90;;;;;;6058942;23;20189;-62
2023/05/19 03:38:47;;;;;;;3.78;2.70;;;11.90;99.90;;;;;;6058509;23;20576;-63
2023/05/19 03:41:15;;;;;;;3.78;2.80;;;11.80;99.90;;;;;;6054199;23;20189;-63
2023/05/19 03:43:42;;;;;;;5.05;2.70;;;11.70;99.90;;;;;;6046473;23;20260;-63
2023/05/19 03:46:10;;;;;;;5.70;3.40;;;11.70;99.90;;;;;;6044433;23;20268;-63
2023/05/19 03:48:38;;;;;;;5.45;3.10;;;11.60;99.90;;;;;;6043654;23;20279;-63
2023/05/19 03:51:05;;;;;;;4.80;3.20;;;11.60;99.90;;;;;;6045537;23;20239;-63
2023/05/19 03:53:32;;;;;;;4.65;2.55;;;11.50;99.90;;;;;;6055200;23;20196;-63
2023/05/19 03:55:59;;;;;;;3.13;2.75;;;11.50;99.90;;;;;;6057510;23;20188;-63
2023/05/19 03:58:28;;;;;;;4.65;3.00;;;11.50;99.90;;;;;;6055204;23;20228;-63
2023/05/19 04:00:55;;;;;;;4.13;2.67;;;11.50;99.90;;;;;;6053343;23;20193;-63
2023/05/19 04:03:25;;;;;;;4.20;2.72;;;11.40;99.90;;;;;;6060845;23;20189;-63
2023/05/19 04:05:52;;;;;;;4.53;2.80;;;11.40;99.90;;;;;;6041763;23;20185;-63
2023/05/19 04:08:19;;;;;;;4.88;2.80;;;11.30;99.90;;;;;;6053302;23;20295;-63
2023/05/19 04:10:46;;;;;;;4.70;3.17;;;11.30;99.90;;;;;;6054060;23;20196;-63
2023/05/19 04:13:13;;;;;;;4.60;2.72;;;11.30;99.90;;;;;;6045636;23;20731;-63
2023/05/19 04:15:40;;;;;;;5.68;2.85;;;11.40;99.90;;;;;;6054256;23;20198;-63
2023/05/19 04:18:07;;;;;;;4.53;2.90;;;11.30;99.90;;;;;;6048945;23;20299;-63
2023/05/19 04:20:36;;;;;;;4.20;2.75;;;11.30;99.90;;;;;;6052261;23;20213;-63
2023/05/19 04:23:03;;;;;;;3.55;2.60;;;11.30;99.90;;;;;;6055035;23;20637;-63
2023/05/19 04:25:30;;;;;;;4.10;2.80;;;11.30;99.90;;;;;;6050332;23;20211;-63
2023/05/19 04:27:57;;;;;;;5.88;2.80;;;11.30;99.90;;;;;;6053630;23;21415;-63
2023/05/19 04:30:24;;;;;;;8.05;2.90;;;11.30;99.90;;;;;;6048662;23;20181;-63
2023/05/19 04:32:51;;;;;;;3.83;2.90;;;11.30;99.90;;;;;;6043623;23;20204;-63
2023/05/19 04:35:19;;;;;;;6.10;3.40;;;11.30;99.90;;;;;;6059200;23;20285;-63
2023/05/19 04:37:47;;;;;;;4.03;2.90;;;11.30;99.90;;;;;;6037730;23;20304;-63
2023/05/19 04:40:16;;;;;;;2.60;2.15;;;11.30;99.90;;;;;;6047370;23;20223;-63
2023/05/19 04:42:44;;;;;;;4.45;2.63;;;11.30;99.90;;;;;;6045744;23;20193;-63
2023/05/19 04:45:12;;;;;;;3.40;2.35;;;11.40;99.90;;;;;;6055812;23;20596;-63
2023/05/19 04:47:40;;;;;;;3.60;2.60;;;11.40;99.90;;;;;;6043455;23;20193;-63
2023/05/19 04:50:09;;;;;;;5.53;2.75;;;11.40;99.90;;;;;;6035597;23;20193;-63
2023/05/19 04:52:37;;;;;;;3.33;3.03;;;11.50;99.90;;;;;;6043362;23;20192;-80
2023/05/19 04:55:06;;;;;;;4.30;2.40;;;11.60;99.90;;;;;;6052999;23;20256;-63
2023/05/19 04:57:34;;;;;;;3.00;2.53;;;11.60;99.90;;;;;;6056909;23;20279;-64
2023/05/19 05:00:00;;;;;;;5.18;2.53;;;11.60;99.90;;;;;;6053689;23;20200;-64
2023/05/19 05:02:28;;;;;;;3.83;2.75;;;11.70;99.90;;;;;;6055084;23;20264;-64
2023/05/19 05:04:55;;;;;;;4.80;2.60;;;11.70;99.90;;;;;;6059101;23;20188;-64
2023/05/19 05:07:22;;;;;;;6.75;3.00;;;11.80;99.90;;;;;;6059261;23;20461;-64
2023/05/19 05:09:49;;;;;;;4.82;2.90;;;11.80;99.90;;;;;;6058481;23;20215;-64
2023/05/19 05:12:18;;;;;;;3.90;2.45;;;11.90;99.90;;;;;;6057288;23;20220;-64
2023/05/19 05:14:46;;;;;;;5.03;2.88;;;11.90;99.90;;;;;;6047216;23;20223;-64
2023/05/19 05:17:14;;;;;;;4.18;2.40;;;12.00;99.90;;;;;;6052790;23;20314;-64
2023/05/19 05:19:42;;;;;;;4.85;2.58;;;12.10;99.90;;;;;;6057166;23;20220;-64
2023/05/19 05:22:10;;;;;;;3.63;2.90;;;12.20;99.90;;;;;;6048739;23;20185;-64
2023/05/19 05:24:37;;;;;;;4.23;2.53;;;12.30;99.90;;;;;;6046299;23;20185;-64
2023/05/19 05:27:06;;;;;;;4.03;3.03;;;12.30;99.90;;;;;;6053168;23;20482;-63
2023/05/19 05:29:35;;;;;;;5.00;3.27;;;12.40;99.90;;;;;;6060540;23;20460;-63
2023/05/19 05:32:02;;;;;;;3.42;3.03;;;12.50;99.90;;;;;;6054497;23;20503;-64
2023/05/19 05:34:29;;;;;;;5.77;2.90;;;12.60;99.90;;;;;;6052900;23;20195;-63
2023/05/19 05:36:56;;;;;;;4.70;3.15;;;12.60;99.90;;;;;;6049028;23;20507;-63
2023/05/19 05:39:24;;;;;;;4.80;3.60;;;12.70;99.90;;;;;;6052377;23;20569;-63
2023/05/19 05:41:51;;;;;;;5.17;3.07;;;12.70;99.90;;;;;;6053748;23;20540;-63
2023/05/19 05:44:18;;;;;;;3.20;2.53;;;12.80;99.90;;;;;;6058708;23;20495;-63
2023/05/19 05:46:47;;;;;;;6.40;2.90;;;12.80;99.90;;;;;;6047371;23;20435;-64
2023/05/19 05:49:14;;;;;;;5.05;3.40;;;12.90;99.90;;;;;;6057283;23;20456;-63
2023/05/19 05:51:42;;;;;;;5.70;2.27;;;13.00;99.90;;;;;;6061150;23;20194;-63
2023/05/19 05:54:11;;;;;;;4.87;2.90;;;13.00;99.90;;;;;;6054036;23;20437;-63
2023/05/19 05:56:39;;;;;;;5.33;3.13;;;13.10;99.90;;;;;;6055671;23;20513;-63
2023/05/19 05:59:06;;;;;;;4.63;3.30;;;13.10;99.90;;;;;;6057120;23;20760;-64
2023/05/19 06:01:35;;;;;;;5.77;3.13;;;13.10;99.90;;;;;;6053783;23;21227;-63
2023/05/19 06:04:04;;;;;;;5.03;2.90;;;13.20;99.90;;;;;;6059954;23;20948;-63
2023/05/19 06:06:31;;;;;;;4.10;2.77;;;13.20;99.90;;;;;;6058978;23;20432;-63
2023/05/19 06:08:58;;;;;;;3.40;2.90;;;13.30;99.90;;;;;;6060569;23;20532;-63
2023/05/19 06:11:25;;;;;;;5.30;3.60;;;13.30;99.90;;;;;;6052180;23;20456;-63
2023/05/19 06:13:52;;;;;;;5.90;3.40;;;13.40;99.90;;;;;;6058229;23;20510;-63
2023/05/19 06:16:19;;;;;;;5.13;2.90;;;13.40;99.90;;;;;;6052261;23;20484;-63
2023/05/19 06:18:46;;;;;;;7.77;3.40;;;13.50;99.90;;;;;;6054791;23;20477;-64
2023/05/19 06:21:16;;;;;;;7.00;3.07;;;13.50;99.90;;;;;;6058061;23;20971;-64
2023/05/19 06:23:43;;;;;;;5.90;3.70;;;13.50;99.90;;;;;;6051562;23;20836;-64
2023/05/19 06:26:10;;;;;;;5.13;4.63;;;13.60;99.90;;;;;;6060332;23;20928;-63
2023/05/19 06:28:37;;;;;;;4.73;2.97;;;13.70;99.90;;;;;;6060675;23;20458;-63
2023/05/19 06:31:04;;;;;;;4.60;3.10;;;13.70;99.90;;;;;;6051847;23;20432;-63
2023/05/19 06:33:31;;;;;;;6.50;3.20;;;13.90;99.90;;;;;;6059302;23;20430;-64
2023/05/19 06:35:59;;;;;;;6.17;3.27;;;14.00;99.90;;;;;;6039322;23;20446;-64
2023/05/19 06:38:28;;;;;;;6.87;3.20;;;14.10;99.90;;;;;;6052572;23;20530;-64
2023/05/19 06:40:55;;;;;;;4.53;3.23;;;14.30;99.90;;;;;;6054045;23;20450;-64
2023/05/19 06:43:24;;;;;;;6.60;3.10;;;14.40;99.90;;;;;;6053782;23;20438;-64
2023/05/19 06:45:51;;;;;;;7.63;3.50;;;14.60;99.90;;;;;;6053526;23;20434;-64
2023/05/19 06:48:18;;;;;;;9.53;4.27;;;14.70;99.90;;;;;;6059646;23;21025;-64
2023/05/19 06:50:45;;;;;;;6.30;2.90;;;14.70;99.90;;;;;;6061624;23;20423;-64
2023/05/19 06:53:13;;;;;;;6.63;3.33;;;14.80;99.90;;;;;;6053772;23;20432;-64
2023/05/19 06:55:41;;;;;;;4.07;3.40;;;14.80;99.90;;;;;;6054067;23;20466;-64
2023/05/19 06:58:08;;;;;;;7.50;3.33;;;14.90;99.90;;;;;;6040658;23;20477;-64
2023/05/19 07:00:36;;;;;;;4.70;3.07;;;14.90;99.90;;;;;;6056403;23;20438;-64
2023/05/19 07:03:03;;;;;;;5.67;3.30;;;14.90;99.90;;;;;;6046527;23;20815;-64
2023/05/19 07:05:30;;;;;;;3.30;2.60;;;15.00;99.90;;;;;;6035198;23;20518;-64
2023/05/19 07:07:57;;;;;;;4.87;3.20;;;15.20;99.90;;;;;;6036598;23;20549;-64
2023/05/19 07:10:24;;;;;;;3.40;2.60;;;15.30;99.90;;;;;;6055155;23;20435;-64
2023/05/19 07:12:53;;;;;;;4.43;2.90;;;15.50;99.90;;;;;;6055657;23;20946;-64
2023/05/19 07:15:20;;;;;;;3.80;2.70;;;15.60;99.90;;;;;;6060761;23;20509;-64
2023/05/19 07:17:47;;;;;;;6.00;3.23;;;15.70;99.90;;;;;;6052942;23;20546;-65
2023/05/19 07:20:14;;;;;;;3.50;3.00;;;15.90;99.90;;;;;;6051593;23;20507;-64
2023/05/19 07:22:41;;;;;;;7.03;3.00;;;16.10;99.90;;;;;;6056171;23;20438;-64
2023/05/19 07:25:09;;;;;;;4.37;2.97;;;16.20;99.90;;;;;;6061356;23;20430;-64
2023/05/19 07:27:36;;;;;;;8.43;3.10;;;16.30;99.90;;;;;;6055992;23;20967;-64
2023/05/19 07:30:06;;;;;;;3.63;3.23;;;16.40;99.90;;;;;;6049049;23;20455;-64
2023/05/19 07:32:32;;;;;;;5.40;3.20;;;16.40;99.90;;;;;;6049144;23;20445;-64
2023/05/19 07:34:59;;;;;;;4.03;2.77;;;16.40;99.90;;;;;;6054935;23;20443;-64
2023/05/19 07:37:26;;;;;;;5.67;3.43;;;16.40;99.90;;;;;;6049524;23;20511;-64
2023/05/19 07:39:54;;;;;;;4.83;3.10;;;16.40;99.90;;;;;;6048185;23;20539;-64
2023/05/19 07:42:21;;;;;;;3.23;2.60;;;16.50;99.90;;;;;;6055067;23;20951;-64
2023/05/19 07:44:48;;;;;;;5.13;3.10;;;16.40;99.90;;;;;;6051626;23;20443;-64
2023/05/19 07:47:16;;;;;;;4.80;2.60;;;16.30;99.90;;;;;;6055377;23;20467;-64
2023/05/19 07:49:43;;;;;;;3.20;2.80;;;16.40;99.90;;;;;;6044835;23;20874;-64
2023/05/19 07:52:11;;;;;;;4.83;3.00;;;16.30;99.90;;;;;;6042788;23;20501;-64
2023/05/19 07:54:37;;;;;;;5.13;2.97;;;16.40;99.90;;;;;;6043529;23;21079;-64
2023/05/19 07:57:05;;;;;;;3.90;2.90;;;16.40;99.90;;;;;;6049847;23;20431;-64
2023/05/19 07:59:32;;;;;;;4.43;3.00;;;16.50;99.90;;;;;;6032296;23;20470;-65
2023/05/19 08:01:59;;;;;;;4.70;2.90;;;16.60;99.90;;;;;;6036771;23;20945;-64
2023/05/19 08:04:28;;;;;;;3.53;3.10;;;16.60;99.90;;;;;;6040698;23;20443;-65
2023/05/19 08:06:55;;;;;;;6.20;3.03;;;16.70;99.90;;;;;;6052714;23;20538;-64
2023/05/19 08:09:22;;;;;;;4.33;2.87;;;16.80;99.70;;;;;;6059837;23;20533;-64
2023/05/19 08:11:49;;;;;;;5.00;3.17;;;16.90;99.60;;;;;;6053900;23;20419;-64
2023/05/19 08:14:18;;;;;;;3.33;2.90;;;17.10;99.50;;;;;;6055161;23;20510;-64
2023/05/19 08:16:45;;;;;;;6.53;3.57;;;17.10;99.80;;;;;;6047971;23;20459;-64
2023/05/19 08:19:12;;;;;;;6.43;3.00;;;16.90;98.90;;;;;;6061396;23;20463;-64
2023/05/19 08:21:41;;;;;;;8.70;3.70;;;16.60;99.20;;;;;;6054432;23;20497;-64
2023/05/19 08:24:08;;;;;;;6.33;3.30;;;16.50;99.60;;;;;;6058626;23;21010;-64
2023/05/19 08:26:35;;;;;;;5.80;3.20;;;16.10;99.60;;;;;;6059065;23;20450;-64
2023/05/19 08:29:02;;;;;;;4.73;3.10;;;16.00;99.90;;;;;;6061436;23;20450;-64
2023/05/19 08:31:29;;;;;;;5.20;3.97;;;15.90;99.90;;;;;;6044811;23;20830;-64
2023/05/19 08:33:56;;;;;;;4.70;3.10;;;15.80;99.90;;;;;;6044961;23;20520;-64
2023/05/19 08:36:23;;;;;;;5.53;3.90;;;15.80;99.90;;;;;;6044217;23;20443;-64
2023/05/19 08:38:51;;;;;;;3.30;3.00;;;15.70;99.90;;;;;;6052149;23;20858;-64
2023/05/19 08:41:18;;;;;;;5.73;3.47;;;15.60;99.90;;;;;;6042736;23;20532;-64
2023/05/19 08:43:46;;;;;;;6.93;3.40;;;15.50;99.90;;;;;;6056418;23;20450;-64
2023/05/19 08:46:15;;;;;;;5.53;3.30;;;15.60;99.90;;;;;;6049055;23;20501;-64
2023/05/19 08:48:44;;;;;;;5.63;3.50;;;15.70;99.90;;;;;;6044231;23;20458;-64
2023/05/19 08:51:17;;;;;;;4.90;3.30;;;15.70;99.90;;;;;;6048694;23;20927;-64
2023/05/19 08:53:49;;;;;;;4.20;3.57;;;15.70;99.90;;;;;;6054260;23;20515;-64
2023/05/19 08:56:21;;;;;;;5.63;3.40;;;15.60;99.90;;;;;;6050581;23;20518;-64
2023/05/19 08:58:50;;;;;;;5.80;3.63;;;15.40;99.90;;;;;;6056365;23;20539;-64
2023/05/19 09:01:18;;;;;;;4.47;3.23;;;15.40;99.90;;;;;;6051046;23;20442;-64
2023/05/19 09:03:48;;;;;;;4.60;3.10;;;15.50;99.90;;;;;;6057356;23;20521;-64
2023/05/19 09:06:15;;;;;;;7.83;3.80;;;15.50;99.90;;;;;;6059220;23;20470;-64
2023/05/19 09:08:43;;;;;;;5.63;3.20;;;15.50;99.90;;;;;;6054992;23;20986;-64
2023/05/19 09:11:10;;;;;;;3.30;3.00;;;15.60;99.90;;;;;;6056085;23;20467;-64
2023/05/19 09:13:39;;;;;;;5.77;2.90;;;15.70;99.90;;;;;;6059819;23;20506;-64
2023/05/19 09:16:07;;;;;;;4.23;3.30;;;15.80;99.90;;;;;;6061375;23;20443;-64
2023/05/19 09:18:36;;;;;;;4.93;3.40;;;15.70;99.90;;;;;;6045274;23;20474;-64
2023/05/19 09:21:06;;;;;;;4.30;3.03;;;15.70;99.90;;;;;;6057511;23;20477;-64
2023/05/19 09:23:34;;;;;;;5.00;3.00;;;15.90;99.90;;;;;;6060423;23;20420;-64
2023/05/19 09:26:03;;;;;;;5.20;3.23;;;16.00;99.90;;;;;;6049821;23;20438;-64
2023/05/19 09:28:32;;;;;;;4.57;3.20;;;16.20;99.90;;;;;;6055083;23;20455;-64
2023/05/19 09:31:02;;;;;;;4.60;3.40;;;16.30;99.90;;;;;;6052324;23;20444;-64
2023/05/19 09:33:32;;;;;;;5.83;3.30;;;16.40;99.90;;;;;;6056868;23;20427;-64
2023/05/19 09:36:00;;;;;;;5.07;3.57;;;16.40;99.90;;;;;;6047528;23;20440;-64
2023/05/19 09:38:28;;;;;;;5.23;3.30;;;16.40;99.90;;;;;;6059239;23;20975;-64
2023/05/19 09:40:57;;;;;;;6.40;3.50;;;16.60;99.90;;;;;;6051376;23;20474;-65
2023/05/19 09:43:24;;;;;;;6.07;3.53;;;16.60;99.90;;;;;;6026570;23;20441;-64
2023/05/19 09:45:55;;;;;;;4.20;2.80;;;16.60;99.90;;;;;;6040297;23;20439;-64
2023/05/19 09:48:26;;;;;;;4.80;3.20;;;16.70;99.90;;;;;;6048782;23;20506;-64
2023/05/19 09:50:54;;;;;;;4.03;2.93;;;16.90;99.90;;;;;;6037258;23;20459;-64
2023/05/19 09:53:21;;;;;;;4.07;2.80;;;16.90;99.90;;;;;;6035970;23;20442;-64
2023/05/19 09:55:48;;;;;;;3.97;3.30;;;17.00;99.90;;;;;;6050143;23;20441;-64
2023/05/19 09:58:17;;;;;;;4.93;3.07;;;17.20;99.90;;;;;;6043492;23;21003;-64
2023/05/19 10:00:44;;;;;;;6.53;5.83;;;17.20;99.90;;;;;;6048141;23;20472;-64
2023/05/19 10:03:12;;;;;;;6.17;5.57;;;17.00;99.50;;;;;;6053254;23;20443;-64
2023/05/19 10:05:41;;;;;;;5.40;3.90;;;17.00;99.50;;;;;;6057753;23;20497;-64
2023/05/19 10:08:09;;;;;;;4.80;3.33;;;17.00;99.50;;;;;;6057394;23;20462;-64
2023/05/19 10:10:37;;;;;;;6.47;3.33;;;17.10;99.80;;;;;;6058662;23;20466;-64
2023/05/19 10:13:05;;;;;;;6.90;3.27;;;17.20;99.80;;;;;;6042777;23;20505;-65
2023/05/19 10:15:33;;;;;;;5.87;3.33;;;17.20;99.20;;;;;;6044112;23;20494;-65
2023/05/19 10:18:02;;;;;;;3.90;3.33;;;17.20;99.80;;;;;;6038895;23;20461;-64
2023/05/19 10:20:31;;;;;;;3.90;3.37;;;17.30;99.90;;;;;;6036602;23;20585;-64
2023/05/19 10:22:59;;;;;;;6.30;3.33;;;17.40;99.60;;;;;;6046429;23;20439;-64
2023/05/19 10:25:27;;;;;;;4.10;3.30;;;17.30;99.10;;;;;;6043361;23;20436;-64
2023/05/19 10:27:57;;;;;;;4.60;3.40;;;17.30;99.20;;;;;;6042927;23;20459;-64
2023/05/19 10:30:28;;;;;;;5.83;3.90;;;17.40;99.20;;;;;;6045365;23;21050;-64
2023/05/19 10:32:57;;;;;;;4.00;3.20;;;17.60;99.60;;;;;;6043820;23;20509;-65
2023/05/19 10:36:01;;;;;;;5.97;3.53;;;17.50;99.00;;;;;;6046245;23;20459;-64
2023/05/19 10:38:39;;;;;;;5.30;3.40;;;17.50;99.00;;;;;;6030742;23;20459;-64
2023/05/19 10:41:10;;;;;;;5.93;3.37;;;17.50;98.70;;;;;;6052417;23;21047;-64
2023/05/19 10:43:49;;;;;;;3.13;2.73;;;17.40;98.60;;;;;;6055271;23;20439;-64
2023/05/19 10:46:16;;;;;;;5.70;3.70;;;17.30;98.90;;;;;;6052830;23;21531;-64
2023/05/19 10:48:45;;;;;;;4.93;3.67;;;17.40;99.20;;;;;;6054091;23;20859;-64
2023/05/19 10:51:14;;;;;;;5.47;4.03;;;17.40;98.50;;;;;;6057316;23;20443;-65
2023/05/19 10:53:45;;;;;;;3.47;3.00;;;17.30;99.20;;;;;;6038590;23;20450;-64
2023/05/19 10:56:29;;;;;;;6.47;3.37;;;17.40;98.90;;;;;;6044685;23;20451;-64
2023/05/19 10:58:56;;;;;;;6.10;3.30;;;17.60;98.90;;;;;;6047247;23;20546;-64
2023/05/19 11:01:29;;;;;;;3.50;3.20;;;17.80;98.70;;;;;;6045693;23;20819;-65
2023/05/19 11:03:57;;;;;;;5.77;3.00;;;17.90;98.50;;;;;;6046607;23;20435;-65
2023/05/19 11:06:27;;;;;;;3.00;2.77;;;18.00;98.50;;;;;;6043079;23;20437;-65
2023/05/19 11:08:59;;;;;;;4.00;3.20;;;18.10;98.30;;;;;;6042576;23;21096;-64
2023/05/19 11:11:28;;;;;;;4.50;3.27;;;18.20;98.20;;;;;;6040393;23;20444;-65
2023/05/19 11:13:55;;;;;;;5.40;3.70;;;18.00;98.40;;;;;;6043699;23;20438;-65
2023/05/19 11:16:29;;;;;;;5.57;3.27;;;18.00;98.10;;;;;;6055786;23;20436;-64
2023/05/19 11:18:58;;;;;;;3.80;3.13;;;17.70;98.30;;;;;;6052601;23;20550;-64
2023/05/19 11:21:41;;;;;;;3.43;3.10;;;17.40;98.70;;;;;;6051911;23;20819;-64
2023/05/19 11:24:10;;;;;;;5.07;3.83;;;17.40;98.70;;;;;;6041561;23;21002;-64
2023/05/19 11:26:41;;;;;;;7.33;3.37;;;17.50;98.50;;;;;;6030912;23;20427;-64
2023/05/19 11:29:09;;;;;;;4.03;3.27;;;17.50;98.30;;;;;;6055240;23;20541;-65
2023/05/19 11:31:36;;;;;;;5.90;3.40;;;17.60;98.20;;;;;;6057288;23;20433;-65
2023/05/19 11:34:06;;;;;;;4.47;3.63;;;17.60;98.20;;;;;;6051902;23;20520;-64
2023/05/19 11:36:33;;;;;;;4.20;3.00;;;17.50;98.70;;;;;;6043425;23;20435;-64
2023/05/19 11:39:02;;;;;;;4.57;3.57;;;17.60;98.50;;;;;;6053366;23;20482;-65
2023/05/19 11:41:30;;;;;;;3.93;3.33;;;17.70;98.70;;;;;;6055048;23;20501;-64
2023/05/19 11:43:57;;;;;;;6.50;3.50;;;17.60;97.90;;;;;;6048068;23;20941;-64
2023/05/19 11:46:25;;;;;;;5.60;3.40;;;17.30;98.20;;;;;;6036314;23;20441;-64
2023/05/19 11:48:54;;;;;;;5.07;3.90;;;17.00;98.40;;;;;;6037152;23;20464;-65
2023/05/19 11:51:22;;;;;;;5.53;4.00;;;17.00;99.20;;;;;;6050228;23;20880;-65
2023/05/19 11:53:50;;;;;;;6.50;5.80;;;17.20;99.00;;;;;;6038308;23;20427;-65
2023/05/19 11:56:17;;;;;;;4.10;3.27;;;17.50;98.50;;;;;;6061700;23;20431;-64
2023/05/19 11:58:45;;;;;;;5.10;3.57;;;17.70;98.10;;;;;;6054709;23;20467;-64
2023/05/19 12:01:12;;;;;;;4.80;3.63;;;17.70;98.40;;;;;;6060270;23;21040;-64
2023/05/19 12:03:39;;;;;;;4.33;3.40;;;17.90;97.90;;;;;;6038611;23;20442;-64
2023/05/19 12:06:07;;;;;;;6.53;4.30;;;18.10;97.80;;;;;;6042275;23;20965;-65
2023/05/19 12:08:36;;;;;;;4.47;3.43;;;18.10;97.70;;;;;;6048380;23;20497;-64
2023/05/19 12:11:03;;;;;;;6.00;3.80;;;18.30;97.50;;;;;;6060886;23;20423;-64
2023/05/19 12:13:30;;;;;;;4.33;3.67;;;18.30;97.10;;;;;;6060673;23;20507;-64
2023/05/19 12:16:01;;;;;;;6.00;3.37;;;18.00;96.90;;;;;;6062816;23;20470;-64
2023/05/19 12:18:37;;;;;;;5.80;3.77;;;17.80;97.60;;;;;;6060272;23;20486;-65
2023/05/19 12:21:05;;;;;;;3.97;2.87;;;17.70;97.60;;;;;;6055466;23;20467;-65
2023/05/19 12:23:32;;;;;;;6.00;4.00;;;17.60;97.80;;;;;;6039361;23;20425;-65
2023/05/19 12:26:00;;;;;;;6.50;3.30;;;17.60;97.90;;;;;;6061292;23;20438;-64
2023/05/19 12:28:30;;;;;;;3.60;3.20;;;17.50;97.60;;;;;;6060721;23;20447;-64
2023/05/19 12:30:57;;;;;;;5.97;3.20;;;17.50;98.10;;;;;;6060960;23;20420;-64
2023/05/19 12:33:25;;;;;;;4.40;3.27;;;17.50;98.20;;;;;;6060324;23;20807;-64
2023/05/19 12:35:54;;;;;;;5.83;3.77;;;17.50;98.10;;;;;;6062728;23;20435;-64
2023/05/19 12:38:22;;;;;;;4.67;3.80;;;17.30;98.30;;;;;;6050855;23;20486;-65
2023/05/19 12:40:50;;;;;;;3.97;3.33;;;17.30;98.50;;;;;;6054850;23;20551;-64
2023/05/19 12:43:20;;;;;;;6.03;3.20;;;17.40;98.40;;;;;;6041296;23;20440;-65
2023/05/19 12:45:47;;;;;;;3.43;3.10;;;17.30;98.50;;;;;;6038169;23;20447;-64
2023/05/19 12:48:15;;;;;;;4.80;3.33;;;17.30;98.80;;;;;;6060783;23;20963;-64
2023/05/19 12:50:44;;;;;;;5.20;4.70;;;17.40;98.90;;;;;;6060403;23;20439;-65
2023/05/19 12:53:12;;;;;;;8.13;6.47;;;17.50;98.80;;;;;;6062912;23;20515;-64
2023/05/19 12:55:43;;;;;;;8.47;5.23;;;17.50;99.10;;;;;;6039920;23;20569;-65